Time;durP1;ratioP1;P1;durP2;ratioP2;P2;SDS_P1;SDS_P2;PMS_P1;PMS_P2;Temp;Humidity;BMP_temperature;BMP_pressure;BME280_temperature;BME280_humidity;BME280_pressure;Samples;Min_cycle;Max_cycle;Signal;HPM_P1;HPM_P2
2022/02/07 00:04:52;;;;;;;7.35;6.53;;;;;;;;;;10285739;28;20075;-64
2022/02/07 00:09:52;;;;;;;7.13;5.32;;;;;;;;;;10286063;28;20072;-62
2022/02/07 00:14:50;;;;;;;9.38;6.05;;;;;;;;;;10283264;28;20064;-62
2022/02/07 00:19:48;;;;;;;11.70;9.60;;;;;;;;;;10283469;28;20490;-62
2022/02/07 00:24:46;;;;;;;9.93;6.40;;;;;;;;;;10284143;28;20085;-62
2022/02/07 00:29:46;;;;;;;7.78;6.45;;;;;;;;;;10283911;28;20068;-62
2022/02/07 00:34:45;;;;;;;7.18;6.47;;;;;;;;;;10285604;28;20122;-62
2022/02/07 00:39:48;;;;;;;6.88;6.18;;;;;;;;;;10291050;28;20079;-62
2022/02/07 00:44:49;;;;;;;8.55;6.53;;;;;;;;;;10281014;28;20069;-63
2022/02/07 00:49:47;;;;;;;6.65;5.32;;;;;;;;;;10281083;28;20064;-63
2022/02/07 00:54:46;;;;;;;13.07;9.05;;;;;;;;;;10280924;28;20084;-63
2022/02/07 00:59:45;;;;;;;6.03;5.38;;;;;;;;;;10281868;28;20091;-64
2022/02/07 01:04:45;;;;;;;9.00;6.88;;;;;;;;;;10279334;28;20533;-63
2022/02/07 01:09:49;;;;;;;7.85;5.70;;;;;;;;;;10277925;28;20064;-63
2022/02/07 01:14:59;;;;;;;7.63;5.35;;;;;;;;;;10282102;28;20071;-62
2022/02/07 01:20:25;;;;;;;6.28;5.47;;;;;;;;;;10276762;28;20076;-63
2022/02/07 01:47:11;;;;;;;7.40;5.55;;;;;;;;;;10278812;28;20049;-62
2022/02/07 01:52:37;;;;;;;6.78;5.18;;;;;;;;;;10280397;28;20060;-62
2022/02/07 01:57:35;;;;;;;7.85;5.60;;;;;;;;;;10279229;28;20076;-63
2022/02/07 02:02:34;;;;;;;6.82;5.90;;;;;;;;;;10284254;28;20044;-63
2022/02/07 02:07:34;;;;;;;8.07;5.55;;;;;;;;;;10284934;28;20084;-63
2022/02/07 02:12:41;;;;;;;7.57;5.30;;;;;;;;;;10277051;28;20068;-63
2022/02/07 02:49:45;;;;;;;6.65;5.68;;;;;;;;;;10278101;28;20122;-63
2022/02/07 02:54:45;;;;;;;8.57;6.90;;;;;;;;;;10287837;28;20052;-63
2022/02/07 02:59:43;;;;;;;7.43;5.50;;;;;;;;;;10276347;28;20083;-63
2022/02/07 03:04:42;;;;;;;7.90;6.10;;;;;;;;;;10277767;28;20061;-63
2022/02/07 03:09:47;;;;;;;6.22;5.63;;;;;;;;;;10277596;28;20056;-62
2022/02/07 03:14:48;;;;;;;8.38;5.88;;;;;;;;;;10278742;28;20435;-63
2022/02/07 03:19:47;;;;;;;5.88;5.18;;;;;;;;;;10273740;28;20088;-63
2022/02/07 03:24:45;;;;;;;7.13;5.93;;;;;;;;;;10279550;28;20073;-63
2022/02/07 03:29:50;;;;;;;8.38;6.00;;;;;;;;;;10278168;28;20068;-63
2022/02/07 03:34:53;;;;;;;7.90;5.07;;;;;;;;;;10276781;28;20067;-63
2022/02/07 03:39:52;;;;;;;5.82;5.28;;;;;;;;;;10275404;28;20080;-62
2022/02/07 03:44:53;;;;;;;6.10;5.50;;;;;;;;;;10275316;28;20057;-62
2022/02/07 03:49:53;;;;;;;7.05;5.10;;;;;;;;;;10278227;28;20088;-63
2022/02/07 03:54:52;;;;;;;9.77;6.75;;;;;;;;;;10279085;28;20497;-62
2022/02/07 03:59:51;;;;;;;7.00;5.75;;;;;;;;;;10274914;28;20076;-63
2022/02/07 04:04:59;;;;;;;6.05;5.22;;;;;;;;;;10280977;28;20045;-63
2022/02/07 04:09:58;;;;;;;5.53;5.03;;;;;;;;;;10280174;28;20414;-63
2022/02/07 04:14:58;;;;;;;5.55;4.65;;;;;;;;;;10280258;28;20084;-63
2022/02/07 04:19:59;;;;;;;5.25;4.78;;;;;;;;;;10283220;28;20069;-63
2022/02/07 04:25:10;;;;;;;9.20;4.53;;;;;;;;;;10285730;28;20517;-63
2022/02/07 04:30:22;;;;;;;6.95;5.32;;;;;;;;;;10285688;28;20088;-64
2022/02/07 04:35:23;;;;;;;10.38;5.78;;;;;;;;;;10282227;28;20053;-63
2022/02/07 04:40:21;;;;;;;6.05;5.40;;;;;;;;;;10283409;28;20084;-64
2022/02/07 04:45:33;;;;;;;6.13;5.45;;;;;;;;;;10281641;28;20079;-64
2022/02/07 04:50:36;;;;;;;9.30;5.20;;;;;;;;;;10290259;28;20545;-64
2022/02/07 04:55:44;;;;;;;6.82;5.57;;;;;;;;;;10286966;28;20073;-64
2022/02/07 05:00:50;;;;;;;6.95;6.03;;;;;;;;;;10276781;28;20072;-64
2022/02/07 05:16:34;;;;;;;35.50;23.35;;;;;;;;;;10278147;28;20040;-63
2022/02/07 05:21:40;;;;;;;10.43;8.68;;;;;;;;;;10279884;28;20073;-63
2022/02/07 05:26:59;;;;;;;8.18;6.10;;;;;;;;;;10290489;28;20084;-63
2022/02/07 05:32:20;;;;;;;11.32;7.03;;;;;;;;;;10279896;28;20083;-63
2022/02/07 05:37:41;;;;;;;7.88;7.05;;;;;;;;;;10285352;28;20552;-62
2022/02/07 05:43:01;;;;;;;7.70;6.78;;;;;;;;;;10276998;28;20103;-63
2022/02/07 05:48:07;;;;;;;8.55;5.72;;;;;;;;;;10276269;28;20057;-63
2022/02/07 05:53:23;;;;;;;6.07;5.30;;;;;;;;;;10272910;28;20068;-62
2022/02/07 05:58:32;;;;;;;6.60;5.85;;;;;;;;;;10279999;28;20155;-63
2022/02/07 06:03:49;;;;;;;8.05;5.50;;;;;;;;;;10280033;28;20076;-62
2022/02/07 06:08:47;;;;;;;6.90;6.20;;;;;;;;;;10277877;28;20404;-63
2022/02/07 06:13:51;;;;;;;6.63;5.47;;;;;;;;;;10274509;28;20091;-63
2022/02/07 06:18:49;;;;;;;6.82;6.13;;;;;;;;;;10278806;28;20075;-63
2022/02/07 06:23:51;;;;;;;6.50;5.82;;;;;;;;;;10277985;28;20080;-62
2022/02/07 06:28:53;;;;;;;9.05;5.93;;;;;;;;;;10277649;28;20647;-62
2022/02/07 06:33:53;;;;;;;11.05;6.03;;;;;;;;;;10282349;28;20475;-62
2022/02/07 06:38:52;;;;;;;22.15;12.43;;;;;;;;;;10287641;28;20068;-63
2022/02/07 06:43:55;;;;;;;19.98;10.45;;;;;;;;;;10280110;28;20075;-62
2022/02/07 06:48:54;;;;;;;6.95;5.43;;;;;;;;;;10281775;28;20494;-62
2022/02/07 06:53:53;;;;;;;10.00;7.38;;;;;;;;;;10275748;28;20545;-63
2022/02/07 06:58:56;;;;;;;10.65;7.40;;;;;;;;;;10280422;28;20069;-62
2022/02/07 07:03:58;;;;;;;8.18;6.10;;;;;;;;;;10278937;28;20083;-63
2022/02/07 07:08:57;;;;;;;7.45;6.40;;;;;;;;;;10279278;28;20069;-63
2022/02/07 07:14:02;;;;;;;10.18;7.22;;;;;;;;;;10279578;28;20481;-63
2022/02/07 07:19:02;;;;;;;7.40;5.55;;;;;;;;;;10276075;28;20077;-62
2022/02/07 07:24:03;;;;;;;9.05;6.22;;;;;;;;;;10279775;28;20818;-63
2022/02/07 07:29:09;;;;;;;10.25;6.97;;;;;;;;;;10277833;28;20080;-63
2022/02/07 07:34:09;;;;;;;11.30;6.60;;;;;;;;;;10272705;28;20076;-63
2022/02/07 07:39:08;;;;;;;33.90;16.30;;;;;;;;;;10273298;28;20490;-63
2022/02/07 07:44:08;;;;;;;55.60;38.22;;;;;;;;;;10283875;28;20075;-63
2022/02/07 07:49:31;;;;;;;38.72;22.00;;;;;;;;;;10282473;28;20526;-63
2022/02/07 07:54:50;;;;;;;71.28;42.50;;;;;;;;;;10281125;28;20057;-63
2022/02/07 08:05:22;;;;;;;61.95;31.27;;;;;;;;;;10284549;28;20535;-63
2022/02/07 08:10:48;;;;;;;49.50;15.45;;;;;;;;;;10294398;28;20499;-63
2022/02/07 08:15:48;;;;;;;47.00;21.25;;;;;;;;;;10292220;28;20159;-63
2022/02/07 08:20:46;;;;;;;34.63;17.25;;;;;;;;;;10287615;28;20087;-63
2022/02/07 08:25:45;;;;;;;30.30;18.02;;;;;;;;;;10283567;28;20068;-62
2022/02/07 08:31:05;;;;;;;14.00;7.97;;;;;;;;;;10278813;28;20091;-63
2022/02/07 08:36:05;;;;;;;16.23;10.77;;;;;;;;;;10280679;28;20532;-63
2022/02/07 08:41:04;;;;;;;18.73;14.52;;;;;;;;;;10281597;28;20076;-62
2022/02/07 08:46:02;;;;;;;16.77;12.45;;;;;;;;;;10280822;28;20079;-63
2022/02/07 08:51:03;;;;;;;15.75;11.02;;;;;;;;;;10279120;28;20037;-64
2022/02/07 08:56:03;;;;;;;13.52;10.20;;;;;;;;;;10281317;28;20075;-63
2022/02/07 09:01:09;;;;;;;12.98;8.77;;;;;;;;;;10280138;28;20083;-63
2022/02/07 09:06:17;;;;;;;10.35;8.07;;;;;;;;;;10281418;28;20096;-63
2022/02/07 09:11:16;;;;;;;15.60;10.27;;;;;;;;;;10277432;28;20065;-63
2022/02/07 09:16:29;;;;;;;27.40;17.65;;;;;;;;;;10279992;28;20071;-63
2022/02/07 09:21:29;;;;;;;40.58;17.17;;;;;;;;;;10278881;28;20080;-63
2022/02/07 09:26:28;;;;;;;35.33;19.45;;;;;;;;;;10284527;28;20075;-63
2022/02/07 09:31:26;;;;;;;38.15;20.67;;;;;;;;;;10276079;28;20064;-63
2022/02/07 09:36:25;;;;;;;66.55;34.58;;;;;;;;;;10276742;28;20083;-62
2022/02/07 09:41:30;;;;;;;47.08;27.75;;;;;;;;;;10282904;28;20068;-62
2022/02/07 09:46:43;;;;;;;107.87;70.47;;;;;;;;;;10276432;28;20064;-63
2022/02/07 09:51:43;;;;;;;76.00;53.72;;;;;;;;;;10283158;28;20326;-62
2022/02/07 09:56:45;;;;;;;34.58;26.60;;;;;;;;;;10276154;28;20114;-63
2022/02/07 10:01:45;;;;;;;37.63;24.65;;;;;;;;;;10275771;28;20068;-63
2022/02/07 10:06:55;;;;;;;27.45;11.00;;;;;;;;;;10277857;28;20079;-63
2022/02/07 10:12:12;;;;;;;21.13;10.75;;;;;;;;;;10279559;28;20076;-63
2022/02/07 10:17:27;;;;;;;13.52;9.05;;;;;;;;;;10279197;28;20056;-63
2022/02/07 10:38:25;;;;;;;29.25;20.15;;;;;;;;;;10279371;28;20079;-63
2022/02/07 10:43:44;;;;;;;25.35;17.92;;;;;;;;;;10277634;28;20083;-63
2022/02/07 10:48:45;;;;;;;18.83;13.60;;;;;;;;;;10280138;28;20106;-64
2022/02/07 10:53:46;;;;;;;40.75;24.08;;;;;;;;;;10281111;28;20083;-63
2022/02/07 10:58:48;;;;;;;36.70;21.35;;;;;;;;;;10282303;28;20073;-63
2022/02/07 11:03:49;;;;;;;15.48;10.00;;;;;;;;;;10282100;28;20079;-64
2022/02/07 11:14:25;;;;;;;13.33;11.37;;;;;;;;;;10280831;28;20076;-64
2022/02/07 11:19:37;;;;;;;21.88;12.75;;;;;;;;;;10287676;28;20334;-64
2022/02/07 11:24:56;;;;;;;20.30;12.50;;;;;;;;;;10290198;28;20075;-64
2022/02/07 11:30:14;;;;;;;11.75;8.68;;;;;;;;;;10291209;28;20479;-64
2022/02/07 11:35:13;;;;;;;17.25;11.50;;;;;;;;;;10287416;28;20095;-64
2022/02/07 11:40:25;;;;;;;15.27;10.98;;;;;;;;;;10285133;28;20513;-64
2022/02/07 11:45:25;;;;;;;12.38;7.47;;;;;;;;;;10285159;28;20074;-64
2022/02/07 11:50:23;;;;;;;22.50;15.95;;;;;;;;;;10287675;28;20065;-64
2022/02/07 11:55:24;;;;;;;40.35;22.42;;;;;;;;;;10288178;28;20068;-63
2022/02/07 12:00:24;;;;;;;23.85;14.68;;;;;;;;;;10285386;28;20072;-63
2022/02/07 12:05:24;;;;;;;18.08;13.57;;;;;;;;;;10287442;28;20699;-63
2022/02/07 12:10:37;;;;;;;21.60;14.15;;;;;;;;;;10281743;28;20064;-63
2022/02/07 12:15:47;;;;;;;19.15;11.52;;;;;;;;;;10279176;28;20120;-62
2022/02/07 12:20:49;;;;;;;23.58;15.73;;;;;;;;;;10285385;28;20072;-63
2022/02/07 12:25:50;;;;;;;19.13;14.18;;;;;;;;;;10282362;28;20053;-62
2022/02/07 12:31:01;;;;;;;14.15;10.07;;;;;;;;;;10293027;28;20080;-62
2022/02/07 12:36:01;;;;;;;8.55;7.00;;;;;;;;;;10282376;28;20076;-63
2022/02/07 12:40:59;;;;;;;13.40;9.10;;;;;;;;;;10283791;28;20160;-63
2022/02/07 12:45:58;;;;;;;14.65;7.63;;;;;;;;;;10281613;28;20068;-63
2022/02/07 12:50:57;;;;;;;12.00;8.95;;;;;;;;;;10281318;28;20075;-63
2022/02/07 12:55:58;;;;;;;10.43;7.32;;;;;;;;;;10280947;28;20276;-65
2022/02/07 13:00:57;;;;;;;18.23;11.38;;;;;;;;;;10281687;28;20084;-63
2022/02/07 13:05:56;;;;;;;23.95;11.98;;;;;;;;;;10281742;28;20073;-64
2022/02/07 13:10:55;;;;;;;19.13;12.10;;;;;;;;;;10282731;28;20052;-63
2022/02/07 13:15:56;;;;;;;21.88;15.55;;;;;;;;;;10282831;28;20079;-64
2022/02/07 13:20:55;;;;;;;25.25;18.00;;;;;;;;;;10282343;28;20049;-63
2022/02/07 13:25:54;;;;;;;21.50;16.42;;;;;;;;;;10280943;28;20076;-63
2022/02/07 13:31:01;;;;;;;12.68;9.10;;;;;;;;;;10282588;28;20071;-64
2022/02/07 13:35:59;;;;;;;16.05;11.63;;;;;;;;;;10282820;28;20479;-64
2022/02/07 13:41:00;;;;;;;16.45;10.65;;;;;;;;;;10281175;28;20045;-64
2022/02/07 13:46:02;;;;;;;30.38;25.55;;;;;;;;;;10280875;28;20087;-64
2022/02/07 13:51:02;;;;;;;48.60;34.47;;;;;;;;;;10281760;28;20044;-64
2022/02/07 13:56:02;;;;;;;63.05;46.00;;;;;;;;;;10281294;28;20454;-63
2022/02/07 14:01:03;;;;;;;34.58;29.50;;;;;;;;;;10280317;28;20498;-63
2022/02/07 14:06:06;;;;;;;33.25;21.13;;;;;;;;;;10279920;28;20076;-63
2022/02/07 14:11:06;;;;;;;87.40;48.30;;;;;;;;;;10280775;28;20076;-63
2022/02/07 14:16:06;;;;;;;24.52;14.93;;;;;;;;;;10277318;28;20068;-63
2022/02/07 14:21:09;;;;;;;98.05;62.03;;;;;;;;;;10281017;28;20064;-64
2022/02/07 14:26:10;;;;;;;30.42;18.20;;;;;;;;;;10276087;28;20083;-64
2022/02/07 14:31:12;;;;;;;71.22;45.25;;;;;;;;;;10273953;28;20471;-63
2022/02/07 14:36:10;;;;;;;39.50;22.98;;;;;;;;;;10279650;28;20064;-63
2022/02/07 14:41:10;;;;;;;53.67;32.00;;;;;;;;;;10285512;28;20091;-63
2022/02/07 14:46:11;;;;;;;65.57;35.45;;;;;;;;;;10281148;28;20065;-63
2022/02/07 14:51:10;;;;;;;83.22;49.38;;;;;;;;;;10280410;28;20064;-63
2022/02/07 14:56:08;;;;;;;55.30;34.13;;;;;;;;;;10277703;28;20087;-64
2022/02/07 15:01:06;;;;;;;49.13;31.27;;;;;;;;;;10279228;28;20092;-64
2022/02/07 15:06:06;;;;;;;75.03;43.83;;;;;;;;;;10277594;28;20072;-63
2022/02/07 15:11:04;;;;;;;44.85;28.92;;;;;;;;;;10275249;28;20072;-64
2022/02/07 15:16:03;;;;;;;33.83;21.90;;;;;;;;;;10273191;28;20071;-63
2022/02/07 15:21:02;;;;;;;20.80;14.45;;;;;;;;;;10280143;28;20075;-64
2022/02/07 15:26:02;;;;;;;37.47;22.48;;;;;;;;;;10280535;28;20080;-63
2022/02/07 15:31:00;;;;;;;23.02;14.93;;;;;;;;;;10277909;28;20111;-62
2022/02/07 15:35:58;;;;;;;145.93;82.35;;;;;;;;;;10277348;28;20459;-63
2022/02/07 15:40:57;;;;;;;227.70;137.30;;;;;;;;;;10277472;28;20076;-62
2022/02/07 15:45:56;;;;;;;303.60;179.52;;;;;;;;;;10277555;28;20088;-62
2022/02/07 15:50:56;;;;;;;290.63;164.75;;;;;;;;;;10280298;28;20868;-63
2022/02/07 15:55:55;;;;;;;310.75;177.32;;;;;;;;;;10279505;28;20122;-64
2022/02/07 16:00:53;;;;;;;171.40;131.10;;;;;;;;;;10284140;28;20064;-63
2022/02/07 16:05:53;;;;;;;141.27;121.72;;;;;;;;;;10284011;28;20088;-63
2022/02/07 16:10:52;;;;;;;82.60;61.65;;;;;;;;;;10282895;28;20534;-64
2022/02/07 16:15:51;;;;;;;57.83;43.92;;;;;;;;;;10283792;28;20143;-62
2022/02/07 16:20:50;;;;;;;36.60;32.80;;;;;;;;;;10283825;28;20614;-63
2022/02/07 16:25:50;;;;;;;52.58;28.52;;;;;;;;;;10284294;28;20064;-63
2022/02/07 16:30:49;;;;;;;78.88;50.55;;;;;;;;;;10278026;28;20049;-64
2022/02/07 16:35:48;;;;;;;49.17;28.13;;;;;;;;;;10277662;28;20085;-63
2022/02/07 16:40:46;;;;;;;34.60;24.98;;;;;;;;;;10282533;28;20065;-63
2022/02/07 16:46:14;;;;;;;24.17;21.58;;;;;;;;;;10277934;28;20080;-64
2022/02/07 16:51:15;;;;;;;39.13;30.58;;;;;;;;;;10280888;28;20139;-64
2022/02/07 16:56:15;;;;;;;37.15;28.40;;;;;;;;;;10280825;28;20060;-64
2022/02/07 17:01:20;;;;;;;50.67;38.70;;;;;;;;;;10282167;28;20068;-63
2022/02/07 17:06:23;;;;;;;33.95;25.63;;;;;;;;;;10281421;28;20123;-64
2022/02/07 17:11:22;;;;;;;43.30;32.28;;;;;;;;;;10275390;28;20072;-63
2022/02/07 17:16:22;;;;;;;34.17;23.77;;;;;;;;;;10278591;28;20095;-62
2022/02/07 17:21:20;;;;;;;34.10;22.02;;;;;;;;;;10280787;28;20064;-61
2022/02/07 17:26:19;;;;;;;18.38;13.98;;;;;;;;;;10279281;28;20091;-63
2022/02/07 17:31:17;;;;;;;31.40;22.48;;;;;;;;;;10279482;28;20083;-62
2022/02/07 17:36:17;;;;;;;18.52;13.15;;;;;;;;;;10281964;28;20071;-62
2022/02/07 17:41:16;;;;;;;17.23;15.43;;;;;;;;;;10278449;28;20469;-63
2022/02/07 17:46:15;;;;;;;14.20;12.20;;;;;;;;;;10280028;28;20064;-64
2022/02/07 17:51:14;;;;;;;18.65;13.90;;;;;;;;;;10277939;28;20073;-63
2022/02/07 17:56:15;;;;;;;19.85;14.38;;;;;;;;;;10278465;28;20446;-63
2022/02/07 18:01:13;;;;;;;11.77;9.90;;;;;;;;;;10278403;28;20080;-63
2022/02/07 18:06:11;;;;;;;15.75;12.75;;;;;;;;;;10280543;28;20509;-63
2022/02/07 18:11:10;;;;;;;14.27;11.63;;;;;;;;;;10278447;28;20083;-63
2022/02/07 18:16:09;;;;;;;32.50;22.70;;;;;;;;;;10277912;28;20063;-62
2022/02/07 18:21:09;;;;;;;23.58;18.75;;;;;;;;;;10279591;28;20072;-63
2022/02/07 18:26:08;;;;;;;33.75;25.15;;;;;;;;;;10280715;28;20469;-62
2022/02/07 18:31:07;;;;;;;95.43;57.42;;;;;;;;;;10280206;28;20082;-64
2022/02/07 18:36:12;;;;;;;76.35;45.08;;;;;;;;;;10275534;28;20067;-63
2022/02/07 18:41:18;;;;;;;39.70;25.40;;;;;;;;;;10273986;28;20087;-62
2022/02/07 18:46:17;;;;;;;25.13;15.43;;;;;;;;;;10277515;28;20072;-64
2022/02/07 18:51:18;;;;;;;49.38;29.38;;;;;;;;;;10277266;28;20056;-65
2022/02/07 18:56:18;;;;;;;24.02;15.35;;;;;;;;;;10276516;28;20064;-65
2022/02/07 19:01:18;;;;;;;22.88;16.60;;;;;;;;;;10278920;28;20071;-64
2022/02/07 19:06:32;;;;;;;27.42;19.75;;;;;;;;;;10296593;28;20081;-65
2022/02/07 19:11:31;;;;;;;29.38;18.40;;;;;;;;;;10298346;28;20064;-64
2022/02/07 19:16:30;;;;;;;23.35;16.85;;;;;;;;;;10298748;28;20087;-65
2022/02/07 19:21:33;;;;;;;34.15;21.88;;;;;;;;;;10298368;28;20067;-64
2022/02/07 19:26:35;;;;;;;47.30;25.98;;;;;;;;;;10298242;28;20076;-65
2022/02/07 19:31:42;;;;;;;43.75;24.70;;;;;;;;;;10278425;28;20122;-62
2022/02/07 19:36:42;;;;;;;37.58;20.17;;;;;;;;;;10285439;28;20072;-63
2022/02/07 19:41:55;;;;;;;28.70;16.88;;;;;;;;;;10280593;28;20075;-63
2022/02/07 19:46:53;;;;;;;21.70;13.50;;;;;;;;;;10288387;28;20095;-64
2022/02/07 19:51:53;;;;;;;44.30;24.10;;;;;;;;;;10286095;28;20095;-63
2022/02/07 19:56:54;;;;;;;40.28;24.73;;;;;;;;;;10287984;28;20076;-63
2022/02/07 20:01:52;;;;;;;44.85;29.38;;;;;;;;;;10284006;28;20486;-63
2022/02/07 20:06:52;;;;;;;16.40;11.05;;;;;;;;;;10280407;28;20537;-63
2022/02/07 20:12:06;;;;;;;17.48;11.65;;;;;;;;;;10286470;28;20072;-65
2022/02/07 20:17:05;;;;;;;11.95;8.15;;;;;;;;;;10284481;28;20064;-65
2022/02/07 20:22:03;;;;;;;9.35;7.68;;;;;;;;;;10289284;28;20061;-63
2022/02/07 20:27:04;;;;;;;10.50;7.10;;;;;;;;;;10280850;28;20466;-63
2022/02/07 20:32:07;;;;;;;10.82;8.13;;;;;;;;;;10284152;28;20088;-63
2022/02/07 20:37:06;;;;;;;17.98;12.48;;;;;;;;;;10284358;28;20087;-62
2022/02/07 20:42:06;;;;;;;16.00;9.68;;;;;;;;;;10287287;28;20068;-63
2022/02/07 20:47:11;;;;;;;7.05;6.03;;;;;;;;;;10280017;28;20112;-63
2022/02/07 20:52:10;;;;;;;8.32;6.63;;;;;;;;;;10280753;28;20068;-62
2022/02/07 20:57:09;;;;;;;9.52;7.25;;;;;;;;;;10283283;28;20044;-63
2022/02/07 21:02:28;;;;;;;9.48;8.48;;;;;;;;;;10284658;28;20092;-62
2022/02/07 21:07:27;;;;;;;7.75;6.75;;;;;;;;;;10280157;28;20103;-63
2022/02/07 21:12:28;;;;;;;7.90;6.65;;;;;;;;;;10279645;28;20124;-62
2022/02/07 21:17:26;;;;;;;8.05;6.07;;;;;;;;;;10281105;28;20060;-62
2022/02/07 21:22:26;;;;;;;6.45;5.38;;;;;;;;;;10277367;28;20465;-62
2022/02/07 21:27:31;;;;;;;5.75;5.15;;;;;;;;;;10278719;28;20075;-64
2022/02/07 21:32:29;;;;;;;5.93;4.97;;;;;;;;;;10280622;28;20538;-64
2022/02/07 21:37:29;;;;;;;6.85;6.20;;;;;;;;;;10279351;28;20071;-64
2022/02/07 21:42:28;;;;;;;5.50;4.90;;;;;;;;;;10280125;28;20451;-64
2022/02/07 21:47:27;;;;;;;9.27;6.50;;;;;;;;;;10280401;28;20064;-64
2022/02/07 21:52:26;;;;;;;6.43;5.50;;;;;;;;;;10279353;28;20060;-64
2022/02/07 21:57:24;;;;;;;7.38;6.07;;;;;;;;;;10280178;28;20069;-64
2022/02/07 22:02:22;;;;;;;8.55;5.50;;;;;;;;;;10286232;28;20079;-64
2022/02/07 22:07:22;;;;;;;11.90;7.43;;;;;;;;;;10278256;28;20073;-64
2022/02/07 22:12:31;;;;;;;12.93;7.65;;;;;;;;;;10277214;28;20060;-63
2022/02/07 22:17:54;;;;;;;8.05;5.30;;;;;;;;;;10277327;28;20080;-63
2022/02/07 22:22:49;;;;;;;12.05;7.63;;;;;;;;;;10279196;28;20069;-64
2022/02/07 22:27:48;;;;;;;14.43;8.88;;;;;;;;;;10278021;28;20531;-64
2022/02/07 22:32:51;;;;;;;13.90;9.95;;;;;;;;;;10278369;28;20077;-63
2022/02/07 22:37:51;;;;;;;13.63;9.02;;;;;;;;;;10277326;28;20079;-64
2022/02/07 22:42:50;;;;;;;11.13;8.82;;;;;;;;;;10278048;28;20075;-64
2022/02/07 22:48:04;;;;;;;13.43;8.50;;;;;;;;;;10341088;27;20397;-63
2022/02/07 22:53:02;;;;;;;12.98;9.20;;;;;;;;;;10340694;28;20064;-65
2022/02/07 22:58:00;;;;;;;9.52;6.10;;;;;;;;;;10339454;28;20552;-63
2022/02/07 23:02:58;;;;;;;11.18;7.25;;;;;;;;;;10340194;28;20072;-63
2022/02/07 23:08:10;;;;;;;7.57;5.40;;;;;;;;;;10340558;28;20072;-64
2022/02/07 23:13:22;;;;;;;6.13;5.53;;;;;;;;;;10340850;28;20441;-64
2022/02/07 23:18:37;;;;;;;7.00;5.95;;;;;;;;;;10342048;28;20783;-64
2022/02/07 23:39:46;;;;;;;6.10;5.50;;;;;;;;;;10320540;28;20510;-65
2022/02/07 23:44:44;;;;;;;;;;;;;;;;;;10341066;28;20083;-64
2022/02/07 23:49:55;;;;;;;7.18;6.30;;;;;;;;;;10339250;28;19948;-64
2022/02/07 23:55:03;;;;;;;11.52;8.88;;;;;;;;;;10334312;28;20072;-64
